Time;durP1;ratioP1;P1;durP2;ratioP2;P2;SDS_P1;SDS_P2;PMS_P1;PMS_P2;Temp;Humidity;BMP_temperature;BMP_pressure;BME280_temperature;BME280_humidity;BME280_pressure;Samples;Min_cycle;Max_cycle;Signal;HPM_P1;HPM_P2
2022/06/26 00:01:28;;;;;;;8.67;7.80;;;17.70;99.90;;;;;;5058126;28;20090;-79
2022/06/26 00:03:53;;;;;;;7.43;6.73;;;17.70;99.90;;;;;;5047812;28;20103;-79
2022/06/26 00:06:19;;;;;;;7.63;6.00;;;17.70;99.90;;;;;;5042905;28;20095;-79
2022/06/26 00:08:45;;;;;;;6.73;6.00;;;17.70;99.90;;;;;;5052449;28;20041;-79
2022/06/26 00:11:11;;;;;;;6.77;5.53;;;17.70;99.90;;;;;;5039127;28;20075;-79
2022/06/26 00:13:36;;;;;;;15.47;10.50;;;17.60;99.90;;;;;;5030597;28;20095;-78
2022/06/26 00:16:02;;;;;;;9.30;8.20;;;17.60;99.90;;;;;;5048779;28;20131;-78
2022/06/26 00:18:29;;;;;;;12.23;8.43;;;17.60;99.90;;;;;;5041112;28;20044;-78
2022/06/26 00:20:55;;;;;;;11.07;9.70;;;17.60;99.90;;;;;;5039813;28;20418;-78
2022/06/26 00:23:21;;;;;;;11.70;8.63;;;17.60;99.90;;;;;;5035065;28;20043;-78
2022/06/26 00:25:47;;;;;;;10.60;7.60;;;17.60;99.90;;;;;;5047539;28;20052;-79
2022/06/26 00:28:13;;;;;;;7.77;6.97;;;17.60;99.90;;;;;;5030011;28;20084;-79
2022/06/26 00:30:39;;;;;;;10.80;8.00;;;17.60;99.90;;;;;;5050044;28;20102;-79
2022/06/26 00:33:05;;;;;;;13.77;10.20;;;17.60;99.90;;;;;;5031530;28;20041;-79
2022/06/26 00:35:32;;;;;;;9.33;8.30;;;17.60;99.90;;;;;;5031595;28;20045;-79
2022/06/26 00:37:58;;;;;;;13.60;10.83;;;17.60;99.90;;;;;;5055280;28;20053;-79
2022/06/26 00:40:24;;;;;;;11.00;9.63;;;17.60;99.90;;;;;;5033962;28;20445;-79
2022/06/26 00:42:50;;;;;;;9.30;8.30;;;17.60;99.90;;;;;;5045903;28;20106;-79
2022/06/26 00:45:15;;;;;;;12.00;8.87;;;17.60;99.90;;;;;;5020758;28;20053;-80
2022/06/26 00:47:41;;;;;;;12.40;8.20;;;17.60;99.90;;;;;;5059590;28;20041;-80
2022/06/26 00:50:08;;;;;;;11.50;10.27;;;17.60;99.90;;;;;;5012399;28;20063;-80
2022/06/26 00:52:37;;;;;;;9.53;8.53;;;17.60;99.90;;;;;;5017969;28;20079;-80
2022/06/26 00:55:04;;;;;;;8.73;7.80;;;17.70;99.90;;;;;;5054716;28;20055;-79
2022/06/26 00:57:30;;;;;;;12.83;10.90;;;17.70;99.90;;;;;;5035070;28;20120;-80
2022/06/26 00:59:56;;;;;;;12.30;10.03;;;17.70;99.90;;;;;;5036231;28;20044;-79
2022/06/26 01:02:22;;;;;;;10.80;9.10;;;17.70;99.90;;;;;;5034500;28;20044;-79
2022/06/26 01:04:48;;;;;;;17.37;11.23;;;17.80;99.90;;;;;;5050056;28;20119;-80
2022/06/26 01:07:14;;;;;;;15.60;11.57;;;17.80;99.90;;;;;;5030866;28;20041;-79
2022/06/26 01:09:42;;;;;;;11.07;9.77;;;17.90;99.90;;;;;;5035821;28;20041;-79
2022/06/26 01:12:08;;;;;;;16.97;13.77;;;17.80;99.90;;;;;;5056487;28;20040;-79
2022/06/26 01:14:34;;;;;;;16.10;14.43;;;17.80;99.90;;;;;;5049827;28;20060;-78
2022/06/26 01:17:01;;;;;;;18.30;13.23;;;17.80;99.90;;;;;;5042431;28;20083;-77
2022/06/26 01:19:27;;;;;;;14.13;12.60;;;17.80;99.90;;;;;;5016511;28;20053;-80
2022/06/26 01:21:53;;;;;;;17.30;14.00;;;17.90;99.90;;;;;;5018774;28;20499;-78
2022/06/26 01:24:20;;;;;;;14.07;12.67;;;18.00;99.90;;;;;;5031844;28;20052;-79
2022/06/26 01:26:47;;;;;;;15.97;14.07;;;18.10;99.90;;;;;;5028524;28;20049;-80
2022/06/26 01:29:13;;;;;;;15.80;14.27;;;18.20;99.90;;;;;;5034862;28;20036;-80
2022/06/26 01:31:39;;;;;;;16.30;14.20;;;18.30;99.90;;;;;;5040301;28;20075;-81
2022/06/26 01:34:07;;;;;;;18.13;14.10;;;18.40;99.90;;;;;;5028223;28;20092;-79
2022/06/26 01:36:33;;;;;;;14.30;12.57;;;18.50;99.90;;;;;;5035664;28;20468;-78
2022/06/26 01:39:00;;;;;;;14.17;12.70;;;18.50;99.90;;;;;;5038251;28;20545;-79
2022/06/26 01:41:27;;;;;;;16.70;14.27;;;18.50;99.90;;;;;;5015996;28;20048;-80
2022/06/26 01:43:53;;;;;;;16.30;14.53;;;18.60;99.90;;;;;;5011537;28;20045;-80
2022/06/26 01:46:20;;;;;;;16.33;12.93;;;18.60;99.90;;;;;;5033210;28;20157;-79
2022/06/26 01:48:47;;;;;;;15.50;12.47;;;18.60;99.90;;;;;;5051811;28;20067;-79
2022/06/26 01:51:14;;;;;;;17.87;12.37;;;18.60;99.90;;;;;;5008453;28;20049;-79
2022/06/26 01:53:43;;;;;;;16.60;12.73;;;18.60;99.90;;;;;;5042685;28;20044;-79
2022/06/26 01:56:09;;;;;;;12.57;11.27;;;18.70;99.90;;;;;;5029717;28;20491;-79
2022/06/26 01:58:44;;;;;;;16.83;13.10;;;18.60;99.90;;;;;;5025728;28;20043;-79
2022/06/26 02:01:16;;;;;;;14.90;13.30;;;18.70;99.90;;;;;;5046617;28;20045;-79
2022/06/26 02:03:42;;;;;;;15.40;11.97;;;18.60;99.90;;;;;;5020420;28;20498;-79
2022/06/26 02:06:08;;;;;;;15.90;13.67;;;18.60;99.90;;;;;;5047379;28;20044;-80
2022/06/26 02:08:34;;;;;;;14.90;13.07;;;18.60;99.90;;;;;;5045780;28;20040;-80
2022/06/26 02:13:46;;;;;;;23.33;13.87;;;18.60;99.90;;;;;;5040203;28;20036;-78
2022/06/26 02:16:14;;;;;;;19.20;14.40;;;18.50;99.90;;;;;;5024517;28;20053;-79
2022/06/26 02:18:43;;;;;;;19.37;14.30;;;18.50;99.90;;;;;;5042444;28;20033;-78
2022/06/26 02:21:10;;;;;;;18.27;14.23;;;18.50;99.90;;;;;;5020308;28;20077;-78
2022/06/26 02:23:37;;;;;;;17.73;14.83;;;18.50;99.90;;;;;;5024021;28;20565;-78
2022/06/26 02:26:05;;;;;;;22.20;14.60;;;18.40;99.90;;;;;;5030662;28;20052;-78
2022/06/26 02:28:31;;;;;;;17.27;14.93;;;18.40;99.90;;;;;;5055930;28;20040;-79
2022/06/26 02:30:59;;;;;;;27.33;18.60;;;18.40;99.90;;;;;;5038858;28;20050;-79
2022/06/26 02:33:26;;;;;;;19.40;14.60;;;18.40;99.90;;;;;;5030934;28;20047;-79
2022/06/26 02:35:55;;;;;;;20.77;17.03;;;18.40;99.90;;;;;;5061486;28;20041;-78
2022/06/26 02:38:21;;;;;;;18.40;16.00;;;18.40;99.90;;;;;;5054383;28;20052;-78
2022/06/26 02:40:47;;;;;;;22.00;15.80;;;18.30;99.90;;;;;;5039819;28;20033;-78
2022/06/26 02:43:13;;;;;;;19.27;14.40;;;18.30;99.90;;;;;;5047950;28;20406;-78
2022/06/26 02:45:39;;;;;;;22.23;14.53;;;18.30;99.90;;;;;;5046665;28;20053;-79
2022/06/26 02:48:07;;;;;;;17.83;14.10;;;18.30;99.90;;;;;;5039050;28;20432;-79
2022/06/26 02:50:33;;;;;;;21.73;15.87;;;18.20;99.90;;;;;;5034351;28;20058;-79
2022/06/26 02:53:00;;;;;;;18.73;15.27;;;18.20;99.90;;;;;;5041370;28;20066;-77
2022/06/26 02:55:25;;;;;;;16.50;13.30;;;18.20;99.90;;;;;;5047526;28;20449;-77
2022/06/26 02:57:51;;;;;;;15.03;12.37;;;18.20;99.90;;;;;;5050453;28;20123;-76
2022/06/26 03:00:19;;;;;;;17.03;12.10;;;18.20;99.90;;;;;;5043755;28;20449;-76
2022/06/26 03:02:47;;;;;;;12.83;10.87;;;18.20;99.90;;;;;;5047704;28;20107;-76
2022/06/26 03:05:14;;;;;;;13.80;12.43;;;18.10;99.90;;;;;;5019354;28;20510;-76
2022/06/26 03:07:41;;;;;;;17.80;13.50;;;18.10;99.90;;;;;;5035473;28;20045;-77
2022/06/26 03:10:07;;;;;;;16.60;13.60;;;18.10;99.90;;;;;;5035794;28;20450;-76
2022/06/26 03:12:33;;;;;;;18.20;13.53;;;18.00;99.90;;;;;;5019318;28;20051;-76
2022/06/26 03:15:02;;;;;;;17.03;12.73;;;18.00;99.90;;;;;;5038986;28;20048;-76
2022/06/26 03:17:28;;;;;;;20.07;13.90;;;17.90;99.90;;;;;;5043592;28;20037;-76
2022/06/26 03:19:54;;;;;;;15.73;12.30;;;17.90;99.90;;;;;;5035208;28;20048;-75
2022/06/26 03:22:21;;;;;;;19.77;15.57;;;17.80;99.90;;;;;;5023814;28;20052;-76
2022/06/26 03:24:47;;;;;;;16.63;12.73;;;17.80;99.90;;;;;;5024165;28;20075;-76
2022/06/26 03:27:13;;;;;;;21.00;13.90;;;17.70;99.90;;;;;;5042597;28;20475;-76
2022/06/26 03:29:39;;;;;;;14.63;11.40;;;17.70;99.90;;;;;;5034984;28;20044;-76
2022/06/26 03:32:07;;;;;;;14.97;12.00;;;17.70;99.90;;;;;;5019214;28;20052;-76
2022/06/26 03:34:37;;;;;;;14.53;11.67;;;17.60;99.90;;;;;;5038798;28;20119;-76
2022/06/26 03:37:03;;;;;;;12.50;11.13;;;17.60;99.90;;;;;;5041131;28;20539;-77
2022/06/26 03:39:30;;;;;;;13.97;11.07;;;17.50;99.90;;;;;;5026920;28;20471;-77
2022/06/26 03:42:01;;;;;;;12.90;10.40;;;17.50;99.90;;;;;;5017305;28;20053;-76
2022/06/26 03:44:31;;;;;;;10.82;9.52;;;17.50;99.90;;;;;;5026067;28;20459;-76
2022/06/26 03:46:57;;;;;;;13.37;10.07;;;17.40;99.90;;;;;;5056412;28;20040;-76
2022/06/26 03:49:23;;;;;;;12.60;10.53;;;17.40;99.90;;;;;;5042494;28;20041;-76
2022/06/26 03:51:49;;;;;;;11.87;8.90;;;17.40;99.90;;;;;;5035534;28;20040;-76
2022/06/26 03:54:16;;;;;;;11.30;7.90;;;17.40;99.90;;;;;;5048442;28;20045;-75
2022/06/26 03:56:44;;;;;;;11.03;8.70;;;17.40;99.90;;;;;;5034507;28;20494;-76
2022/06/26 03:59:10;;;;;;;11.13;8.33;;;17.40;99.90;;;;;;5034595;28;20048;-76
2022/06/26 04:01:36;;;;;;;13.17;7.90;;;17.40;99.90;;;;;;5039351;28;20036;-76
2022/06/26 04:04:01;;;;;;;7.80;6.50;;;17.40;99.90;;;;;;5020889;28;20514;-76
2022/06/26 04:06:29;;;;;;;9.00;6.63;;;17.40;99.90;;;;;;5042985;28;20461;-76
2022/06/26 04:08:58;;;;;;;9.10;6.60;;;17.40;99.90;;;;;;5034281;28;20532;-76
2022/06/26 04:11:23;;;;;;;10.07;7.20;;;17.40;99.90;;;;;;5032816;28;20076;-76
2022/06/26 04:13:56;;;;;;;8.57;6.63;;;17.30;99.90;;;;;;5030178;28;20047;-76
2022/06/26 04:16:23;;;;;;;9.40;6.87;;;17.30;99.90;;;;;;5044209;28;20079;-75
2022/06/26 04:18:50;;;;;;;8.27;6.20;;;17.30;99.90;;;;;;5030619;28;20056;-76
2022/06/26 04:21:16;;;;;;;6.80;6.10;;;17.20;99.90;;;;;;5043511;28;20047;-76
2022/06/26 04:23:42;;;;;;;9.07;5.97;;;17.20;99.90;;;;;;5034023;28;20083;-76
2022/06/26 04:26:15;;;;;;;7.47;5.65;;;17.20;99.90;;;;;;5041142;28;20084;-76
2022/06/26 04:28:41;;;;;;;6.80;5.83;;;17.20;99.90;;;;;;5027357;28;20498;-75
2022/06/26 04:31:08;;;;;;;7.20;5.80;;;17.20;99.90;;;;;;5041756;28;20113;-76
2022/06/26 04:33:36;;;;;;;7.33;5.60;;;17.20;99.90;;;;;;5044372;28;20263;-76
2022/06/26 04:36:07;;;;;;;7.93;5.73;;;17.10;99.90;;;;;;5028359;28;20073;-76
2022/06/26 04:38:35;;;;;;;8.37;5.67;;;17.10;99.90;;;;;;5037237;28;20110;-76
2022/06/26 04:41:31;;;;;;;8.33;6.07;;;17.10;99.90;;;;;;5054336;28;20482;-76
2022/06/26 04:43:47;;;;;;;7.73;5.53;;;17.10;99.90;;;;;;5040247;28;20051;-76
2022/06/26 04:46:14;;;;;;;7.57;6.20;;;17.00;99.90;;;;;;5031607;28;20044;-75
2022/06/26 04:48:41;;;;;;;6.63;5.93;;;17.00;99.90;;;;;;5029330;28;20102;-76
2022/06/26 04:51:10;;;;;;;8.27;6.70;;;17.00;99.90;;;;;;5037986;28;20391;-76
2022/06/26 04:53:37;;;;;;;8.60;6.63;;;17.10;99.90;;;;;;5018356;28;20048;-78
2022/06/26 04:56:04;;;;;;;10.50;7.10;;;17.10;99.90;;;;;;5036150;28;20055;-77
2022/06/26 04:58:38;;;;;;;7.93;6.97;;;17.10;99.90;;;;;;5041620;28;20036;-76
2022/06/26 05:01:04;;;;;;;8.00;7.27;;;17.10;99.90;;;;;;5046209;28;20079;-76
2022/06/26 05:03:50;;;;;;;8.00;7.07;;;17.20;99.90;;;;;;5028043;28;20049;-76
2022/06/26 05:06:30;;;;;;;10.07;6.80;;;17.20;99.90;;;;;;5030596;28;20090;-76
2022/06/26 05:09:12;;;;;;;7.90;6.73;;;17.30;99.90;;;;;;5053326;28;20036;-76
2022/06/26 05:11:40;;;;;;;11.40;6.83;;;17.30;99.90;;;;;;5046153;28;20402;-76
2022/06/26 05:14:06;;;;;;;10.73;6.83;;;17.40;99.90;;;;;;5043684;28;20040;-75
2022/06/26 05:16:36;;;;;;;8.13;6.70;;;17.50;99.90;;;;;;5023892;28;20037;-76
2022/06/26 05:19:04;;;;;;;9.00;7.17;;;17.60;99.90;;;;;;5033032;28;20078;-76
2022/06/26 05:21:32;;;;;;;9.27;6.93;;;17.60;99.90;;;;;;5033622;28;20140;-75
2022/06/26 05:23:57;;;;;;;7.87;6.97;;;17.70;99.90;;;;;;5031935;28;20123;-76
2022/06/26 05:26:23;;;;;;;11.17;7.93;;;17.70;99.90;;;;;;5023084;28;20041;-75
2022/06/26 05:28:53;;;;;;;8.60;7.57;;;17.80;99.90;;;;;;5048037;28;20068;-77
2022/06/26 05:31:18;;;;;;;8.87;7.23;;;17.70;99.90;;;;;;5047614;28;20138;-75
2022/06/26 05:33:45;;;;;;;9.67;8.13;;;17.70;99.90;;;;;;5047612;28;20127;-75
2022/06/26 05:36:12;;;;;;;8.73;7.73;;;17.70;99.90;;;;;;5038255;28;20136;-77
2022/06/26 05:38:39;;;;;;;10.27;7.87;;;17.70;99.90;;;;;;5054179;28;20049;-76
2022/06/26 05:41:05;;;;;;;10.33;8.63;;;17.70;99.90;;;;;;5044777;28;20041;-75
2022/06/26 05:43:34;;;;;;;12.87;9.17;;;17.80;99.90;;;;;;5033631;28;20072;-75
2022/06/26 05:46:00;;;;;;;13.87;10.60;;;17.80;99.90;;;;;;5047350;28;20040;-76
2022/06/26 05:48:45;;;;;;;13.13;11.67;;;17.80;99.90;;;;;;5054016;28;20051;-77
2022/06/26 05:51:25;;;;;;;14.63;11.70;;;17.80;99.90;;;;;;5036442;28;20045;-75
2022/06/26 05:54:09;;;;;;;12.60;10.73;;;17.80;99.90;;;;;;5046095;28;20055;-76
2022/06/26 05:56:58;;;;;;;13.37;11.73;;;17.80;99.90;;;;;;5045010;28;20047;-77
2022/06/26 05:59:34;;;;;;;12.90;11.50;;;17.80;99.90;;;;;;5043724;28;20032;-76
2022/06/26 06:02:09;;;;;;;15.57;13.67;;;17.80;99.90;;;;;;5039936;28;20040;-77
2022/06/26 06:04:35;;;;;;;17.07;14.03;;;17.80;99.90;;;;;;5032109;28;20037;-77
2022/06/26 06:07:05;;;;;;;15.70;13.80;;;17.90;99.90;;;;;;5025289;28;20044;-77
2022/06/26 06:09:31;;;;;;;17.93;14.67;;;17.90;99.90;;;;;;5000466;28;20059;-74
2022/06/26 06:11:57;;;;;;;16.00;14.37;;;17.90;99.90;;;;;;5025012;28;20045;-76
2022/06/26 06:14:23;;;;;;;17.07;13.53;;;18.00;99.90;;;;;;5050166;28;20067;-76
2022/06/26 06:16:49;;;;;;;18.67;13.43;;;18.10;99.90;;;;;;5039243;28;20041;-76
2022/06/26 06:19:15;;;;;;;13.53;12.13;;;18.20;99.90;;;;;;5054090;28;20040;-75
2022/06/26 06:21:44;;;;;;;14.93;13.30;;;18.40;99.90;;;;;;5049773;28;20072;-77
2022/06/26 06:24:11;;;;;;;13.30;12.00;;;18.50;99.90;;;;;;5032974;28;20388;-75
2022/06/26 06:26:38;;;;;;;13.80;11.57;;;18.60;99.90;;;;;;5043799;28;20087;-76
2022/06/26 06:29:17;;;;;;;13.23;11.93;;;18.60;99.90;;;;;;5054382;28;20063;-77
2022/06/26 06:31:43;;;;;;;13.37;11.97;;;18.70;99.90;;;;;;5039891;28;20098;-75
2022/06/26 06:34:09;;;;;;;12.23;10.93;;;18.70;99.90;;;;;;5053802;28;20059;-73
2022/06/26 06:36:35;;;;;;;13.90;12.60;;;18.60;99.90;;;;;;5044310;28;20115;-77
2022/06/26 06:39:04;;;;;;;15.37;13.77;;;18.70;99.90;;;;;;5041932;28;20041;-77
2022/06/26 06:41:32;;;;;;;14.37;12.97;;;18.60;99.90;;;;;;5024737;28;20052;-76
2022/06/26 06:44:06;;;;;;;15.77;14.17;;;18.60;99.90;;;;;;5042746;28;20049;-76
2022/06/26 06:46:32;;;;;;;18.30;14.17;;;18.70;99.90;;;;;;5049062;28;20052;-76
2022/06/26 06:49:07;;;;;;;14.67;13.03;;;18.80;99.90;;;;;;5027232;28;20492;-75
2022/06/26 06:51:46;;;;;;;16.37;13.90;;;18.80;99.90;;;;;;5043243;28;20032;-77
2022/06/26 06:54:12;;;;;;;15.03;13.37;;;18.80;99.90;;;;;;5066980;28;20052;-77
2022/06/26 06:56:39;;;;;;;15.43;13.90;;;18.90;99.90;;;;;;5029997;28;20056;-78
2022/06/26 06:59:05;;;;;;;15.57;13.97;;;18.70;99.90;;;;;;5046597;28;20044;-78
2022/06/26 07:01:31;;;;;;;15.97;13.93;;;18.70;99.90;;;;;;5039053;28;20460;-78
2022/06/26 07:03:57;;;;;;;17.07;15.27;;;18.70;99.90;;;;;;5045540;28;20036;-77
2022/06/26 07:06:23;;;;;;;16.93;14.80;;;18.70;99.90;;;;;;5060696;28;20107;-77
2022/06/26 07:08:49;;;;;;;16.07;14.57;;;18.80;99.90;;;;;;5042490;28;20040;-77
2022/06/26 07:11:16;;;;;;;16.13;14.63;;;18.80;99.90;;;;;;5042122;28;20041;-77
2022/06/26 07:13:43;;;;;;;18.33;16.47;;;18.80;99.90;;;;;;5022771;28;20520;-77
2022/06/26 07:16:10;;;;;;;21.20;17.83;;;18.80;99.90;;;;;;5036443;28;20052;-76
2022/06/26 07:18:36;;;;;;;18.83;16.93;;;18.90;99.90;;;;;;5064319;28;20089;-77
2022/06/26 07:21:03;;;;;;;19.43;16.67;;;18.80;99.90;;;;;;5038230;28;20033;-77
2022/06/26 07:23:29;;;;;;;18.37;16.57;;;18.90;99.90;;;;;;5051931;28;20044;-76
2022/06/26 07:26:02;;;;;;;19.85;17.85;;;19.00;99.90;;;;;;5040819;28;20041;-78
2022/06/26 07:28:33;;;;;;;19.13;17.23;;;19.00;99.90;;;;;;5037011;28;20036;-76
2022/06/26 07:31:01;;;;;;;20.20;18.10;;;19.10;99.90;;;;;;5015729;28;20527;-76
2022/06/26 07:36:12;;;;;;;22.70;20.43;;;19.20;99.90;;;;;;5045920;28;20135;-77
2022/06/26 07:38:38;;;;;;;22.23;19.90;;;19.20;99.90;;;;;;5029505;28;20051;-78
2022/06/26 07:41:06;;;;;;;23.00;20.53;;;19.20;99.90;;;;;;5032638;28;20036;-76
2022/06/26 07:43:31;;;;;;;22.93;20.63;;;19.30;99.90;;;;;;5036343;28;20041;-77
2022/06/26 07:45:57;;;;;;;20.43;18.33;;;19.20;99.90;;;;;;5029632;28;20044;-77
2022/06/26 07:48:25;;;;;;;19.73;17.73;;;19.20;99.90;;;;;;5020546;28;20068;-77
2022/06/26 07:50:54;;;;;;;19.50;17.40;;;19.20;99.90;;;;;;5031986;28;20059;-77
2022/06/26 07:53:20;;;;;;;18.93;17.07;;;19.30;99.90;;;;;;5022747;28;20617;-77
2022/06/26 07:55:47;;;;;;;20.37;18.30;;;19.30;99.90;;;;;;5018638;28;20045;-76
2022/06/26 07:58:13;;;;;;;21.10;18.93;;;19.30;99.90;;;;;;5030271;28;20419;-77
2022/06/26 08:00:39;;;;;;;18.83;17.13;;;19.50;99.90;;;;;;5046949;28;20043;-76
2022/06/26 08:03:06;;;;;;;19.87;17.93;;;19.50;99.90;;;;;;5030261;28;20056;-77
2022/06/26 08:05:33;;;;;;;19.40;17.57;;;19.60;99.90;;;;;;5037711;28;20502;-77
2022/06/26 08:07:59;;;;;;;21.17;18.67;;;19.60;99.90;;;;;;5058801;28;20118;-77
2022/06/26 08:10:24;;;;;;;18.50;16.50;;;19.60;99.90;;;;;;5039532;28;20060;-78
2022/06/26 08:12:50;;;;;;;18.70;16.20;;;19.80;99.90;;;;;;5050889;28;20450;-77
2022/06/26 08:15:16;;;;;;;16.53;14.53;;;19.90;99.90;;;;;;5042277;28;20049;-77
2022/06/26 08:17:41;;;;;;;14.50;12.30;;;20.00;99.90;;;;;;5059457;28;20056;-77
2022/06/26 08:20:08;;;;;;;13.77;12.37;;;20.00;99.90;;;;;;5032340;28;20040;-76
2022/06/26 08:22:36;;;;;;;14.00;12.23;;;20.00;99.90;;;;;;5051074;28;20410;-77
2022/06/26 08:25:02;;;;;;;14.63;13.20;;;19.90;99.90;;;;;;5029292;28;20040;-76
2022/06/26 08:27:27;;;;;;;15.77;12.37;;;19.90;99.90;;;;;;5050584;28;20047;-76
2022/06/26 08:29:53;;;;;;;15.33;10.83;;;19.90;99.90;;;;;;5052075;28;20037;-77
2022/06/26 08:32:19;;;;;;;12.37;10.00;;;19.90;99.90;;;;;;5029434;28;20498;-76
2022/06/26 08:34:44;;;;;;;14.37;11.87;;;19.90;99.90;;;;;;5043082;28;20056;-76
2022/06/26 08:37:10;;;;;;;12.53;9.00;;;20.00;99.90;;;;;;5010821;28;20042;-77
2022/06/26 08:39:38;;;;;;;9.43;7.47;;;20.00;99.90;;;;;;5028585;28;20444;-76
2022/06/26 08:42:05;;;;;;;11.63;7.23;;;20.10;99.90;;;;;;5045237;28;20510;-78
2022/06/26 08:44:32;;;;;;;11.57;7.47;;;20.30;99.90;;;;;;5040650;28;20072;-77
2022/06/26 08:46:58;;;;;;;6.80;6.10;;;20.40;99.90;;;;;;5065434;28;20417;-76
2022/06/26 08:49:24;;;;;;;8.17;6.53;;;20.50;99.90;;;;;;5033417;28;20064;-76
2022/06/26 08:51:51;;;;;;;7.10;5.33;;;20.60;99.90;;;;;;5033167;28;20060;-79
2022/06/26 08:54:19;;;;;;;7.33;5.47;;;20.70;99.90;;;;;;5053062;28;20043;-79
2022/06/26 08:56:48;;;;;;;6.40;5.07;;;20.80;99.90;;;;;;5036412;28;20044;-79
2022/06/26 08:59:17;;;;;;;9.13;6.13;;;21.00;99.90;;;;;;5054447;28;20049;-79
2022/06/26 09:01:43;;;;;;;7.97;5.63;;;21.00;99.90;;;;;;5044437;28;20045;-79
2022/06/26 09:04:10;;;;;;;7.13;4.72;;;21.00;99.90;;;;;;5036912;28;20036;-77
2022/06/26 09:06:39;;;;;;;9.00;6.13;;;21.10;99.90;;;;;;5041183;28;20054;-78
2022/06/26 09:09:13;;;;;;;7.75;5.18;;;21.30;99.90;;;;;;5032009;28;20041;-78
2022/06/26 09:11:39;;;;;;;7.70;5.40;;;21.40;99.90;;;;;;5049930;28;20094;-78
2022/06/26 09:14:06;;;;;;;9.82;5.55;;;21.40;99.90;;;;;;5033453;28;20559;-81
2022/06/26 09:16:32;;;;;;;9.70;4.82;;;21.50;99.90;;;;;;5038212;28;20144;-77
2022/06/26 09:19:07;;;;;;;6.80;3.90;;;21.60;99.90;;;;;;5027086;28;20041;-79
2022/06/26 09:21:33;;;;;;;6.93;3.90;;;21.70;99.90;;;;;;5015777;28;20110;-79
2022/06/26 09:23:58;;;;;;;5.53;4.32;;;21.90;99.90;;;;;;5041935;28;20037;-78
2022/06/26 09:26:24;;;;;;;9.20;3.90;;;22.00;99.90;;;;;;5032130;28;20072;-78
2022/06/26 09:28:50;;;;;;;5.63;3.92;;;21.90;99.90;;;;;;5041727;28;20425;-79
2022/06/26 09:31:21;;;;;;;5.32;3.53;;;21.80;99.90;;;;;;5072063;28;20711;-79
2022/06/26 09:33:47;;;;;;;6.78;3.55;;;21.90;99.90;;;;;;5054478;28;20517;-79
2022/06/26 09:36:15;;;;;;;5.22;3.38;;;22.20;99.90;;;;;;5025934;28;20586;-78
2022/06/26 09:38:48;;;;;;;5.03;2.70;;;22.50;99.90;;;;;;5037321;28;20091;-79
2022/06/26 09:41:14;;;;;;;4.60;2.60;;;22.50;99.90;;;;;;5049176;28;20051;-78
2022/06/26 09:43:42;;;;;;;5.22;2.60;;;22.50;99.90;;;;;;5050711;28;20481;-79
2022/06/26 09:46:10;;;;;;;4.57;2.33;;;22.60;99.90;;;;;;5046033;28;20415;-78
2022/06/26 09:48:38;;;;;;;3.50;2.22;;;22.80;99.90;;;;;;5052604;28;20049;-80
2022/06/26 09:51:08;;;;;;;4.30;2.67;;;23.10;99.90;;;;;;5042329;28;20041;-79
2022/06/26 09:53:35;;;;;;;4.63;2.72;;;23.30;99.90;;;;;;5080314;28;20051;-77
2022/06/26 09:56:02;;;;;;;4.50;2.80;;;23.30;99.90;;;;;;5042735;28;20127;-79
2022/06/26 09:58:29;;;;;;;3.78;2.80;;;23.00;99.90;;;;;;5022279;28;20483;-78
2022/06/26 10:06:28;;;;;;;3.30;2.13;;;22.30;99.90;;;;;;5041761;28;21810;-79
2022/06/26 10:08:55;;;;;;;3.88;2.50;;;22.20;99.90;;;;;;5036625;28;20038;-78
2022/06/26 10:11:24;;;;;;;4.93;2.58;;;22.20;99.90;;;;;;5045459;28;20576;-78
2022/06/26 10:13:53;;;;;;;3.80;2.25;;;22.30;99.90;;;;;;5055079;28;20077;-81
2022/06/26 10:16:39;;;;;;;4.50;2.38;;;22.80;99.90;;;;;;5024043;28;20041;-79
2022/06/26 10:19:21;;;;;;;5.72;2.45;;;23.30;99.90;;;;;;5048146;28;20048;-80
2022/06/26 10:21:47;;;;;;;6.95;2.60;;;24.00;99.90;;;;;;5047599;28;20073;-78
2022/06/26 10:24:14;;;;;;;5.63;2.88;;;24.40;99.90;;;;;;5042671;28;20056;-80
2022/06/26 10:26:51;;;;;;;3.20;2.45;;;24.80;99.90;;;;;;5013928;28;20052;-80
2022/06/26 10:29:17;;;;;;;5.68;3.00;;;25.00;99.90;;;;;;5035727;28;20064;-78
2022/06/26 10:31:47;;;;;;;5.30;2.67;;;24.90;99.90;;;;;;5039597;28;20041;-79
2022/06/26 10:34:17;;;;;;;4.55;3.08;;;24.50;99.90;;;;;;5032489;28;20079;-78
2022/06/26 10:36:56;;;;;;;4.22;2.72;;;24.10;99.90;;;;;;5059467;28;20045;-80
2022/06/26 10:39:22;;;;;;;6.78;2.17;;;23.80;99.90;;;;;;5039034;28;20124;-77
2022/06/26 10:44:45;;;;;;;3.20;1.88;;;23.40;99.90;;;;;;5058939;28;20044;-79
2022/06/26 10:47:15;;;;;;;4.32;1.95;;;23.10;99.90;;;;;;5050093;28;20539;-78
2022/06/26 10:49:49;;;;;;;5.78;2.25;;;22.80;99.90;;;;;;5052223;28;20048;-80
2022/06/26 10:52:31;;;;;;;4.50;2.10;;;22.70;99.90;;;;;;5042050;28;20449;-78
2022/06/26 10:54:57;;;;;;;6.85;2.50;;;22.60;99.90;;;;;;5028087;28;20352;-78
2022/06/26 10:57:33;;;;;;;3.97;2.00;;;22.50;99.90;;;;;;5052132;28;20053;-79
2022/06/26 11:00:00;;;;;;;5.93;2.40;;;22.50;99.90;;;;;;5046381;28;20486;-78
2022/06/26 11:02:34;;;;;;;5.63;2.72;;;22.50;99.90;;;;;;5038159;28;20151;-79
2022/06/26 11:05:01;;;;;;;;;;;22.60;99.90;;;;;;5050465;28;20037;-77
2022/06/26 11:07:28;;;;;;;5.85;1.75;;;22.60;99.90;;;;;;5020107;28;19936;-76
2022/06/26 11:09:55;;;;;;;3.10;1.40;;;22.70;99.90;;;;;;5040367;28;20041;-78
2022/06/26 11:12:21;;;;;;;3.35;1.88;;;22.80;99.90;;;;;;5053655;28;20059;-79
2022/06/26 11:14:48;;;;;;;6.10;2.20;;;23.00;99.90;;;;;;5046919;28;20037;-78
2022/06/26 11:17:13;;;;;;;4.35;2.47;;;23.30;99.90;;;;;;5059244;28;20103;-78
2022/06/26 11:22:27;;;;;;;3.80;2.15;;;23.40;99.90;;;;;;5036057;28;20135;-79
2022/06/26 11:24:55;;;;;;;7.50;2.72;;;23.60;99.90;;;;;;5050873;28;20048;-78
2022/06/26 11:27:21;;;;;;;6.80;2.70;;;23.90;99.90;;;;;;5044119;28;20632;-78
2022/06/26 11:29:47;;;;;;;5.78;3.03;;;24.00;99.90;;;;;;5068647;28;20494;-79
2022/06/26 11:32:13;;;;;;;5.60;2.70;;;24.10;99.90;;;;;;5049814;28;20136;-77
2022/06/26 11:34:48;;;;;;;6.32;2.60;;;24.20;99.90;;;;;;5056493;28;20115;-77
2022/06/26 11:37:13;;;;;;;5.30;2.30;;;24.30;99.90;;;;;;5032899;28;20045;-78
2022/06/26 11:39:42;;;;;;;4.63;2.70;;;24.40;99.90;;;;;;5050479;28;20045;-77
2022/06/26 11:42:15;;;;;;;6.72;2.72;;;24.60;99.90;;;;;;5034925;28;20041;-78
2022/06/26 11:44:46;;;;;;;4.45;2.55;;;25.00;99.90;;;;;;5030603;28;20296;-76
2022/06/26 11:47:12;;;;;;;4.82;2.42;;;25.10;99.90;;;;;;5061749;28;20052;-79
2022/06/26 11:49:38;;;;;;;7.10;2.35;;;25.00;99.20;;;;;;5027262;28;20068;-78
2022/06/26 11:52:07;;;;;;;5.32;2.58;;;24.80;98.20;;;;;;5001932;28;20041;-78
2022/06/26 11:54:33;;;;;;;5.28;2.60;;;24.60;98.40;;;;;;5021157;28;20041;-78
2022/06/26 11:57:05;;;;;;;6.22;2.88;;;24.50;99.70;;;;;;5022977;28;20457;-78
2022/06/26 11:59:31;;;;;;;4.13;2.90;;;24.40;99.90;;;;;;5024757;28;20057;-78
2022/06/26 12:01:57;;;;;;;6.30;2.50;;;24.30;99.00;;;;;;5025712;28;20107;-79
2022/06/26 12:04:22;;;;;;;5.45;2.55;;;24.30;99.50;;;;;;5022208;28;20555;-77
2022/06/26 12:06:50;;;;;;;4.50;2.40;;;24.30;99.00;;;;;;5020286;28;20052;-77
2022/06/26 12:09:20;;;;;;;3.80;2.22;;;24.00;97.20;;;;;;5023083;28;20116;-79
2022/06/26 12:11:47;;;;;;;4.70;2.42;;;23.90;97.60;;;;;;5020167;28;20030;-78
2022/06/26 12:14:16;;;;;;;5.47;2.50;;;24.10;98.00;;;;;;5044491;28;20056;-77
2022/06/26 12:16:46;;;;;;;4.70;2.50;;;24.00;98.80;;;;;;5025624;28;20127;-77
2022/06/26 12:19:11;;;;;;;5.60;2.70;;;24.00;99.40;;;;;;5039953;28;20072;-77
2022/06/26 12:21:37;;;;;;;5.65;2.53;;;23.80;98.30;;;;;;5023123;28;20046;-78
2022/06/26 12:24:10;;;;;;;5.30;2.60;;;23.90;99.20;;;;;;5040406;28;20115;-77
2022/06/26 12:26:38;;;;;;;4.65;2.60;;;23.90;99.10;;;;;;5020033;28;20099;-77
2022/06/26 12:29:09;;;;;;;7.00;2.63;;;23.90;98.80;;;;;;5041872;28;20099;-78
2022/06/26 12:31:36;;;;;;;5.68;2.55;;;23.80;98.90;;;;;;5048853;28;20033;-76
2022/06/26 12:34:04;;;;;;;6.82;2.80;;;23.60;98.30;;;;;;5022279;28;20045;-78
2022/06/26 12:36:30;;;;;;;6.45;2.90;;;23.40;99.20;;;;;;5020652;28;20494;-78
2022/06/26 12:38:56;;;;;;;6.47;2.90;;;23.40;99.90;;;;;;5026839;28;20071;-78
2022/06/26 12:41:22;;;;;;;5.15;2.53;;;23.30;99.80;;;;;;5039031;28;20415;-79
2022/06/26 12:43:49;;;;;;;7.90;3.10;;;23.10;99.10;;;;;;5041133;28;20041;-79
2022/06/26 12:46:15;;;;;;;4.68;2.60;;;22.90;99.30;;;;;;5006091;28;20045;-80
2022/06/26 12:48:42;;;;;;;5.28;2.50;;;22.70;99.70;;;;;;5023157;28;20542;-77
2022/06/26 12:51:09;;;;;;;6.38;2.92;;;22.70;99.90;;;;;;5058152;28;20053;-78
2022/06/26 12:53:35;;;;;;;4.95;2.90;;;22.60;99.90;;;;;;5044729;28;20040;-77
2022/06/26 12:56:01;;;;;;;6.32;2.75;;;22.60;99.90;;;;;;5026767;28;20041;-77
2022/06/26 12:58:27;;;;;;;5.85;2.53;;;22.50;99.90;;;;;;5039936;28;20106;-77